sensor_id;sensor_type;location;lat;lon;timestamp;P1;durP1;ratioP1;P2;durP2;ratioP2
37201;SDS011;37799;52.390;6.136;2023-07-29T00:01:42;4.53;;;1.13;;
37201;SDS011;37799;52.390;6.136;2023-07-29T00:04:07;5.30;;;1.13;;
37201;SDS011;37799;52.390;6.136;2023-07-29T00:06:36;4.13;;;1.20;;
37201;SDS011;37799;52.390;6.136;2023-07-29T00:09:02;4.38;;;0.88;;
37201;SDS011;37799;52.390;6.136;2023-07-29T00:11:28;5.00;;;1.10;;
37201;SDS011;37799;52.390;6.136;2023-07-29T00:13:53;4.38;;;1.10;;
37201;SDS011;37799;52.390;6.136;2023-07-29T00:16:19;3.47;;;1.00;;
37201;SDS011;37799;52.390;6.136;2023-07-29T00:18:47;4.53;;;1.00;;
37201;SDS011;37799;52.390;6.136;2023-07-29T00:21:13;5.20;;;1.20;;
37201;SDS011;37799;52.390;6.136;2023-07-29T00:23:38;4.15;;;1.00;;
37201;SDS011;37799;52.390;6.136;2023-07-29T00:26:04;5.00;;;1.02;;
37201;SDS011;37799;52.390;6.136;2023-07-29T00:28:29;4.72;;;1.17;;
37201;SDS011;37799;52.390;6.136;2023-07-29T00:30:55;4.57;;;1.40;;
37201;SDS011;37799;52.390;6.136;2023-07-29T00:33:20;4.60;;;1.17;;
37201;SDS011;37799;52.390;6.136;2023-07-29T00:35:46;4.63;;;1.10;;
37201;SDS011;37799;52.390;6.136;2023-07-29T00:38:11;4.45;;;1.50;;
37201;SDS011;37799;52.390;6.136;2023-07-29T00:40:37;5.50;;;1.67;;
37201;SDS011;37799;52.390;6.136;2023-07-29T00:43:02;5.20;;;1.20;;
37201;SDS011;37799;52.390;6.136;2023-07-29T00:45:28;4.18;;;1.15;;
37201;SDS011;37799;52.390;6.136;2023-07-29T00:47:54;4.10;;;1.10;;
37201;SDS011;37799;52.390;6.136;2023-07-29T00:50:20;3.63;;;0.88;;
37201;SDS011;37799;52.390;6.136;2023-07-29T00:52:46;3.13;;;0.90;;
37201;SDS011;37799;52.390;6.136;2023-07-29T00:55:11;4.13;;;0.90;;
37201;SDS011;37799;52.390;6.136;2023-07-29T00:57:37;4.95;;;1.17;;
37201;SDS011;37799;52.390;6.136;2023-07-29T01:00:03;3.15;;;0.88;;
37201;SDS011;37799;52.390;6.136;2023-07-29T01:02:29;4.00;;;0.98;;
37201;SDS011;37799;52.390;6.136;2023-07-29T01:04:58;3.92;;;0.90;;
37201;SDS011;37799;52.390;6.136;2023-07-29T01:07:33;3.47;;;0.73;;
37201;SDS011;37799;52.390;6.136;2023-07-29T01:10:10;3.30;;;0.88;;
37201;SDS011;37799;52.390;6.136;2023-07-29T01:12:54;3.23;;;0.93;;
37201;SDS011;37799;52.390;6.136;2023-07-29T01:15:29;3.42;;;0.70;;
37201;SDS011;37799;52.390;6.136;2023-07-29T01:17:59;3.65;;;0.70;;
37201;SDS011;37799;52.390;6.136;2023-07-29T01:20:29;4.07;;;1.05;;
37201;SDS011;37799;52.390;6.136;2023-07-29T01:22:58;3.92;;;0.70;;
37201;SDS011;37799;52.390;6.136;2023-07-29T01:25:24;3.53;;;0.70;;
37201;SDS011;37799;52.390;6.136;2023-07-29T01:27:49;3.65;;;0.90;;
37201;SDS011;37799;52.390;6.136;2023-07-29T01:30:22;3.55;;;0.82;;
37201;SDS011;37799;52.390;6.136;2023-07-29T01:32:53;3.97;;;0.90;;
37201;SDS011;37799;52.390;6.136;2023-07-29T01:35:34;6.60;;;1.08;;
37201;SDS011;37799;52.390;6.136;2023-07-29T01:38:12;3.03;;;0.68;;
37201;SDS011;37799;52.390;6.136;2023-07-29T01:40:47;3.20;;;0.82;;
37201;SDS011;37799;52.390;6.136;2023-07-29T01:43:15;3.15;;;0.88;;
37201;SDS011;37799;52.390;6.136;2023-07-29T01:45:41;3.25;;;0.93;;
37201;SDS011;37799;52.390;6.136;2023-07-29T01:48:07;4.05;;;1.23;;
37201;SDS011;37799;52.390;6.136;2023-07-29T01:50:33;3.72;;;1.00;;
37201;SDS011;37799;52.390;6.136;2023-07-29T01:52:59;6.32;;;1.00;;
37201;SDS011;37799;52.390;6.136;2023-07-29T01:55:24;4.50;;;1.05;;
37201;SDS011;37799;52.390;6.136;2023-07-29T01:57:50;3.45;;;0.77;;
37201;SDS011;37799;52.390;6.136;2023-07-29T02:00:16;2.45;;;0.50;;
37201;SDS011;37799;52.390;6.136;2023-07-29T02:02:42;5.85;;;0.80;;
37201;SDS011;37799;52.390;6.136;2023-07-29T02:05:07;2.63;;;0.68;;
37201;SDS011;37799;52.390;6.136;2023-07-29T02:07:32;3.08;;;0.68;;
37201;SDS011;37799;52.390;6.136;2023-07-29T02:09:58;6.38;;;0.82;;
37201;SDS011;37799;52.390;6.136;2023-07-29T02:12:23;2.58;;;0.95;;
37201;SDS011;37799;52.390;6.136;2023-07-29T02:14:49;4.95;;;1.00;;
37201;SDS011;37799;52.390;6.136;2023-07-29T02:17:14;3.75;;;0.98;;
37201;SDS011;37799;52.390;6.136;2023-07-29T02:19:39;3.08;;;0.70;;
37201;SDS011;37799;52.390;6.136;2023-07-29T02:22:04;3.38;;;0.65;;
37201;SDS011;37799;52.390;6.136;2023-07-29T02:24:30;3.45;;;0.80;;
37201;SDS011;37799;52.390;6.136;2023-07-29T02:26:55;2.60;;;0.57;;
37201;SDS011;37799;52.390;6.136;2023-07-29T02:29:20;4.18;;;0.43;;
37201;SDS011;37799;52.390;6.136;2023-07-29T02:31:46;2.47;;;0.50;;
37201;SDS011;37799;52.390;6.136;2023-07-29T02:34:12;3.28;;;0.80;;
37201;SDS011;37799;52.390;6.136;2023-07-29T02:36:38;3.53;;;0.90;;
37201;SDS011;37799;52.390;6.136;2023-07-29T02:39:03;2.78;;;0.60;;
37201;SDS011;37799;52.390;6.136;2023-07-29T02:41:29;2.13;;;0.43;;
37201;SDS011;37799;52.390;6.136;2023-07-29T02:43:54;2.15;;;0.43;;
37201;SDS011;37799;52.390;6.136;2023-07-29T02:46:20;1.55;;;0.32;;
37201;SDS011;37799;52.390;6.136;2023-07-29T02:48:45;1.52;;;0.40;;
37201;SDS011;37799;52.390;6.136;2023-07-29T02:51:11;2.80;;;0.70;;
37201;SDS011;37799;52.390;6.136;2023-07-29T02:53:36;3.63;;;0.55;;
37201;SDS011;37799;52.390;6.136;2023-07-29T02:56:02;3.55;;;0.60;;
37201;SDS011;37799;52.390;6.136;2023-07-29T02:58:34;2.30;;;0.40;;
37201;SDS011;37799;52.390;6.136;2023-07-29T03:01:01;2.13;;;0.40;;
37201;SDS011;37799;52.390;6.136;2023-07-29T03:03:27;2.92;;;0.60;;
37201;SDS011;37799;52.390;6.136;2023-07-29T03:08:29;1.75;;;0.40;;
37201;SDS011;37799;52.390;6.136;2023-07-29T03:10:54;2.67;;;0.35;;
37201;SDS011;37799;52.390;6.136;2023-07-29T03:13:20;3.20;;;0.50;;
37201;SDS011;37799;52.390;6.136;2023-07-29T03:15:46;2.17;;;0.60;;
37201;SDS011;37799;52.390;6.136;2023-07-29T03:18:11;2.55;;;0.43;;
37201;SDS011;37799;52.390;6.136;2023-07-29T03:20:37;3.13;;;0.50;;
37201;SDS011;37799;52.390;6.136;2023-07-29T03:23:02;3.08;;;0.75;;
37201;SDS011;37799;52.390;6.136;2023-07-29T03:25:28;3.25;;;0.47;;
37201;SDS011;37799;52.390;6.136;2023-07-29T03:27:53;3.08;;;0.52;;
37201;SDS011;37799;52.390;6.136;2023-07-29T03:30:19;1.73;;;0.40;;
37201;SDS011;37799;52.390;6.136;2023-07-29T03:32:46;2.03;;;0.43;;
37201;SDS011;37799;52.390;6.136;2023-07-29T03:35:12;2.55;;;0.70;;
37201;SDS011;37799;52.390;6.136;2023-07-29T03:37:37;1.52;;;0.40;;
37201;SDS011;37799;52.390;6.136;2023-07-29T03:40:03;1.38;;;0.40;;
37201;SDS011;37799;52.390;6.136;2023-07-29T03:42:29;3.92;;;0.70;;
37201;SDS011;37799;52.390;6.136;2023-07-29T03:44:54;2.83;;;0.50;;
37201;SDS011;37799;52.390;6.136;2023-07-29T03:47:20;1.95;;;0.30;;
37201;SDS011;37799;52.390;6.136;2023-07-29T03:49:45;3.20;;;0.47;;
37201;SDS011;37799;52.390;6.136;2023-07-29T03:52:10;4.75;;;0.82;;
37201;SDS011;37799;52.390;6.136;2023-07-29T03:54:36;1.88;;;0.40;;
37201;SDS011;37799;52.390;6.136;2023-07-29T03:57:01;1.50;;;0.28;;
37201;SDS011;37799;52.390;6.136;2023-07-29T03:59:27;2.58;;;0.65;;
37201;SDS011;37799;52.390;6.136;2023-07-29T04:01:52;3.60;;;0.52;;
37201;SDS011;37799;52.390;6.136;2023-07-29T04:04:17;2.47;;;0.45;;
37201;SDS011;37799;52.390;6.136;2023-07-29T04:06:43;2.25;;;0.43;;
37201;SDS011;37799;52.390;6.136;2023-07-29T04:09:08;3.40;;;0.60;;
37201;SDS011;37799;52.390;6.136;2023-07-29T04:11:34;2.67;;;0.57;;
37201;SDS011;37799;52.390;6.136;2023-07-29T04:13:59;3.55;;;0.70;;
37201;SDS011;37799;52.390;6.136;2023-07-29T04:16:25;2.85;;;0.75;;
37201;SDS011;37799;52.390;6.136;2023-07-29T04:18:51;3.63;;;0.50;;
37201;SDS011;37799;52.390;6.136;2023-07-29T04:21:16;2.13;;;0.40;;
37201;SDS011;37799;52.390;6.136;2023-07-29T04:23:42;3.38;;;0.55;;
37201;SDS011;37799;52.390;6.136;2023-07-29T04:26:07;3.58;;;0.75;;
37201;SDS011;37799;52.390;6.136;2023-07-29T04:28:33;2.08;;;0.43;;
37201;SDS011;37799;52.390;6.136;2023-07-29T04:30:58;3.72;;;0.70;;
37201;SDS011;37799;52.390;6.136;2023-07-29T04:33:24;2.90;;;0.63;;
37201;SDS011;37799;52.390;6.136;2023-07-29T04:35:50;3.92;;;0.73;;
37201;SDS011;37799;52.390;6.136;2023-07-29T04:38:15;4.50;;;1.10;;
37201;SDS011;37799;52.390;6.136;2023-07-29T04:40:40;4.30;;;1.08;;
37201;SDS011;37799;52.390;6.136;2023-07-29T04:43:06;2.77;;;0.87;;
37201;SDS011;37799;52.390;6.136;2023-07-29T04:45:31;3.50;;;0.63;;
37201;SDS011;37799;52.390;6.136;2023-07-29T04:47:57;2.88;;;0.63;;
37201;SDS011;37799;52.390;6.136;2023-07-29T04:50:23;2.75;;;0.68;;
37201;SDS011;37799;52.390;6.136;2023-07-29T04:52:49;2.58;;;0.60;;
37201;SDS011;37799;52.390;6.136;2023-07-29T04:55:14;4.63;;;0.80;;
37201;SDS011;37799;52.390;6.136;2023-07-29T04:57:40;6.10;;;0.50;;
37201;SDS011;37799;52.390;6.136;2023-07-29T05:00:07;2.80;;;0.50;;
37201;SDS011;37799;52.390;6.136;2023-07-29T05:02:42;3.75;;;0.85;;
37201;SDS011;37799;52.390;6.136;2023-07-29T05:05:08;3.90;;;1.00;;
37201;SDS011;37799;52.390;6.136;2023-07-29T05:07:33;5.15;;;0.77;;
37201;SDS011;37799;52.390;6.136;2023-07-29T05:09:59;4.15;;;0.70;;
37201;SDS011;37799;52.390;6.136;2023-07-29T05:12:24;4.53;;;0.75;;
37201;SDS011;37799;52.390;6.136;2023-07-29T05:14:50;4.40;;;0.85;;
37201;SDS011;37799;52.390;6.136;2023-07-29T05:17:17;3.63;;;1.00;;
37201;SDS011;37799;52.390;6.136;2023-07-29T05:20:02;3.38;;;1.00;;
37201;SDS011;37799;52.390;6.136;2023-07-29T05:22:27;4.80;;;0.90;;
37201;SDS011;37799;52.390;6.136;2023-07-29T05:24:53;3.47;;;1.00;;
37201;SDS011;37799;52.390;6.136;2023-07-29T05:27:18;6.82;;;1.20;;
37201;SDS011;37799;52.390;6.136;2023-07-29T05:29:45;3.28;;;0.82;;
37201;SDS011;37799;52.390;6.136;2023-07-29T05:32:10;4.30;;;0.93;;
37201;SDS011;37799;52.390;6.136;2023-07-29T05:34:36;4.57;;;1.02;;
37201;SDS011;37799;52.390;6.136;2023-07-29T05:37:02;3.08;;;0.80;;
37201;SDS011;37799;52.390;6.136;2023-07-29T05:39:28;2.72;;;0.60;;
37201;SDS011;37799;52.390;6.136;2023-07-29T05:41:54;2.92;;;0.60;;
37201;SDS011;37799;52.390;6.136;2023-07-29T05:44:21;3.85;;;1.13;;
37201;SDS011;37799;52.390;6.136;2023-07-29T05:46:46;2.38;;;0.57;;
37201;SDS011;37799;52.390;6.136;2023-07-29T05:49:12;2.42;;;0.57;;
37201;SDS011;37799;52.390;6.136;2023-07-29T05:51:38;5.75;;;0.98;;
37201;SDS011;37799;52.390;6.136;2023-07-29T05:54:03;3.13;;;0.60;;
37201;SDS011;37799;52.390;6.136;2023-07-29T05:56:37;3.15;;;0.93;;
37201;SDS011;37799;52.390;6.136;2023-07-29T05:59:03;2.72;;;0.77;;
37201;SDS011;37799;52.390;6.136;2023-07-29T06:01:28;2.17;;;0.40;;
37201;SDS011;37799;52.390;6.136;2023-07-29T06:03:53;2.58;;;0.47;;
37201;SDS011;37799;52.390;6.136;2023-07-29T06:06:20;2.28;;;0.50;;
37201;SDS011;37799;52.390;6.136;2023-07-29T06:08:48;2.10;;;0.45;;
37201;SDS011;37799;52.390;6.136;2023-07-29T06:11:13;2.90;;;0.45;;
37201;SDS011;37799;52.390;6.136;2023-07-29T06:13:39;2.10;;;0.65;;
37201;SDS011;37799;52.390;6.136;2023-07-29T06:16:04;2.17;;;0.45;;
37201;SDS011;37799;52.390;6.136;2023-07-29T06:18:29;3.63;;;0.70;;
37201;SDS011;37799;52.390;6.136;2023-07-29T06:20:55;2.40;;;0.50;;
37201;SDS011;37799;52.390;6.136;2023-07-29T06:23:20;2.03;;;0.40;;
37201;SDS011;37799;52.390;6.136;2023-07-29T06:25:46;2.75;;;0.52;;
37201;SDS011;37799;52.390;6.136;2023-07-29T06:28:11;2.88;;;0.60;;
37201;SDS011;37799;52.390;6.136;2023-07-29T06:30:36;2.75;;;0.70;;
37201;SDS011;37799;52.390;6.136;2023-07-29T06:33:04;3.15;;;0.52;;
37201;SDS011;37799;52.390;6.136;2023-07-29T06:35:30;2.38;;;0.45;;
37201;SDS011;37799;52.390;6.136;2023-07-29T06:37:55;4.15;;;0.52;;
37201;SDS011;37799;52.390;6.136;2023-07-29T06:40:21;2.47;;;0.63;;
37201;SDS011;37799;52.390;6.136;2023-07-29T06:42:46;2.60;;;0.40;;
37201;SDS011;37799;52.390;6.136;2023-07-29T06:45:11;2.03;;;0.50;;
37201;SDS011;37799;52.390;6.136;2023-07-29T06:47:37;3.22;;;0.88;;
37201;SDS011;37799;52.390;6.136;2023-07-29T06:50:03;3.05;;;0.47;;
37201;SDS011;37799;52.390;6.136;2023-07-29T06:52:29;4.40;;;0.77;;
37201;SDS011;37799;52.390;6.136;2023-07-29T06:54:59;4.28;;;0.93;;
37201;SDS011;37799;52.390;6.136;2023-07-29T06:57:28;3.08;;;0.30;;
37201;SDS011;37799;52.390;6.136;2023-07-29T06:59:55;2.38;;;0.47;;
37201;SDS011;37799;52.390;6.136;2023-07-29T08:29:09;2.28;;;0.63;;
37201;SDS011;37799;52.390;6.136;2023-07-29T08:31:34;2.05;;;0.50;;
37201;SDS011;37799;52.390;6.136;2023-07-29T08:33:59;1.95;;;0.80;;
37201;SDS011;37799;52.390;6.136;2023-07-29T08:36:25;2.67;;;0.75;;
37201;SDS011;37799;52.390;6.136;2023-07-29T08:38:51;3.53;;;0.80;;
37201;SDS011;37799;52.390;6.136;2023-07-29T08:41:19;3.53;;;0.90;;
37201;SDS011;37799;52.390;6.136;2023-07-29T08:44:09;2.33;;;0.73;;
37201;SDS011;37799;52.390;6.136;2023-07-29T08:46:42;2.13;;;0.63;;
37201;SDS011;37799;52.390;6.136;2023-07-29T08:49:08;2.38;;;0.70;;
37201;SDS011;37799;52.390;6.136;2023-07-29T08:51:36;3.95;;;1.10;;
37201;SDS011;37799;52.390;6.136;2023-07-29T08:54:02;4.75;;;1.13;;
37201;SDS011;37799;52.390;6.136;2023-07-29T08:56:28;3.60;;;1.05;;
37201;SDS011;37799;52.390;6.136;2023-07-29T08:58:55;2.50;;;0.80;;
37201;SDS011;37799;52.390;6.136;2023-07-29T09:01:22;4.45;;;0.80;;
37201;SDS011;37799;52.390;6.136;2023-07-29T09:03:47;2.83;;;0.88;;
37201;SDS011;37799;52.390;6.136;2023-07-29T09:06:13;2.75;;;0.80;;
37201;SDS011;37799;52.390;6.136;2023-07-29T09:08:39;2.65;;;0.80;;
37201;SDS011;37799;52.390;6.136;2023-07-29T09:11:05;1.70;;;0.60;;
37201;SDS011;37799;52.390;6.136;2023-07-29T09:13:31;2.85;;;0.52;;
37201;SDS011;37799;52.390;6.136;2023-07-29T09:15:57;2.60;;;0.65;;
37201;SDS011;37799;52.390;6.136;2023-07-29T09:18:23;2.42;;;0.80;;
37201;SDS011;37799;52.390;6.136;2023-07-29T09:20:52;3.40;;;1.13;;
37201;SDS011;37799;52.390;6.136;2023-07-29T09:23:18;4.70;;;1.02;;
37201;SDS011;37799;52.390;6.136;2023-07-29T09:25:46;3.58;;;0.90;;
37201;SDS011;37799;52.390;6.136;2023-07-29T09:28:13;3.60;;;1.13;;
37201;SDS011;37799;52.390;6.136;2023-07-29T09:30:40;3.17;;;1.00;;
37201;SDS011;37799;52.390;6.136;2023-07-29T09:33:10;3.03;;;0.95;;
37201;SDS011;37799;52.390;6.136;2023-07-29T09:35:37;4.00;;;1.02;;
37201;SDS011;37799;52.390;6.136;2023-07-29T09:38:06;3.33;;;0.90;;
37201;SDS011;37799;52.390;6.136;2023-07-29T09:40:36;2.20;;;0.75;;
37201;SDS011;37799;52.390;6.136;2023-07-29T09:43:03;2.10;;;0.80;;
37201;SDS011;37799;52.390;6.136;2023-07-29T09:45:29;2.65;;;0.80;;
37201;SDS011;37799;52.390;6.136;2023-07-29T09:47:57;3.33;;;1.05;;
37201;SDS011;37799;52.390;6.136;2023-07-29T09:50:24;5.45;;;0.90;;
37201;SDS011;37799;52.390;6.136;2023-07-29T09:52:50;3.17;;;0.95;;
37201;SDS011;37799;52.390;6.136;2023-07-29T09:55:22;4.30;;;0.70;;
37201;SDS011;37799;52.390;6.136;2023-07-29T09:57:52;2.60;;;0.70;;
37201;SDS011;37799;52.390;6.136;2023-07-29T10:00:22;2.25;;;0.80;;
37201;SDS011;37799;52.390;6.136;2023-07-29T10:02:48;2.05;;;0.70;;
37201;SDS011;37799;52.390;6.136;2023-07-29T10:05:13;4.63;;;0.85;;
37201;SDS011;37799;52.390;6.136;2023-07-29T10:07:40;3.92;;;1.15;;
37201;SDS011;37799;52.390;6.136;2023-07-29T10:10:06;1.77;;;0.52;;
37201;SDS011;37799;52.390;6.136;2023-07-29T10:12:33;2.45;;;0.60;;
37201;SDS011;37799;52.390;6.136;2023-07-29T10:15:03;3.38;;;1.02;;
37201;SDS011;37799;52.390;6.136;2023-07-29T10:19:57;3.63;;;0.65;;
37201;SDS011;37799;52.390;6.136;2023-07-29T10:22:24;4.68;;;0.90;;
37201;SDS011;37799;52.390;6.136;2023-07-29T10:24:53;3.08;;;0.70;;
37201;SDS011;37799;52.390;6.136;2023-07-29T10:27:23;3.70;;;1.15;;
37201;SDS011;37799;52.390;6.136;2023-07-29T10:29:51;2.65;;;0.50;;
37201;SDS011;37799;52.390;6.136;2023-07-29T10:32:21;3.92;;;0.85;;
37201;SDS011;37799;52.390;6.136;2023-07-29T10:34:50;2.87;;;0.57;;
37201;SDS011;37799;52.390;6.136;2023-07-29T10:37:16;4.90;;;0.80;;
37201;SDS011;37799;52.390;6.136;2023-07-29T10:39:51;1.67;;;0.50;;
37201;SDS011;37799;52.390;6.136;2023-07-29T10:42:19;1.63;;;0.40;;
37201;SDS011;37799;52.390;6.136;2023-07-29T10:44:51;1.67;;;0.38;;
37201;SDS011;37799;52.390;6.136;2023-07-29T10:47:18;4.70;;;1.88;;
37201;SDS011;37799;52.390;6.136;2023-07-29T10:49:47;3.45;;;0.50;;
37201;SDS011;37799;52.390;6.136;2023-07-29T10:52:15;1.85;;;0.43;;
37201;SDS011;37799;52.390;6.136;2023-07-29T10:54:46;3.75;;;0.43;;
37201;SDS011;37799;52.390;6.136;2023-07-29T10:59:39;0.95;;;0.28;;
37201;SDS011;37799;52.390;6.136;2023-07-29T11:02:11;1.92;;;0.40;;
37201;SDS011;37799;52.390;6.136;2023-07-29T11:04:49;1.30;;;0.35;;
37201;SDS011;37799;52.390;6.136;2023-07-29T11:15:03;1.50;;;0.50;;
37201;SDS011;37799;52.390;6.136;2023-07-29T11:17:45;3.20;;;0.73;;
37201;SDS011;37799;52.390;6.136;2023-07-29T11:20:10;2.47;;;0.65;;
37201;SDS011;37799;52.390;6.136;2023-07-29T11:22:37;3.00;;;0.90;;
37201;SDS011;37799;52.390;6.136;2023-07-29T11:25:03;2.08;;;0.70;;
37201;SDS011;37799;52.390;6.136;2023-07-29T11:27:30;2.42;;;0.73;;
37201;SDS011;37799;52.390;6.136;2023-07-29T11:29:56;2.45;;;0.88;;
37201;SDS011;37799;52.390;6.136;2023-07-29T11:32:25;3.40;;;0.80;;
37201;SDS011;37799;52.390;6.136;2023-07-29T11:34:50;2.28;;;0.52;;
37201;SDS011;37799;52.390;6.136;2023-07-29T11:37:16;1.60;;;0.40;;
37201;SDS011;37799;52.390;6.136;2023-07-29T11:39:42;1.08;;;0.30;;
37201;SDS011;37799;52.390;6.136;2023-07-29T11:42:11;1.65;;;0.50;;
37201;SDS011;37799;52.390;6.136;2023-07-29T11:44:37;1.45;;;0.40;;
37201;SDS011;37799;52.390;6.136;2023-07-29T11:47:06;1.67;;;0.50;;
37201;SDS011;37799;52.390;6.136;2023-07-29T11:49:33;2.28;;;0.50;;
37201;SDS011;37799;52.390;6.136;2023-07-29T11:51:59;1.92;;;0.40;;
37201;SDS011;37799;52.390;6.136;2023-07-29T11:54:25;1.85;;;0.60;;
37201;SDS011;37799;52.390;6.136;2023-07-29T11:56:50;2.55;;;0.70;;
37201;SDS011;37799;52.390;6.136;2023-07-29T11:59:16;2.40;;;0.57;;
37201;SDS011;37799;52.390;6.136;2023-07-29T12:01:41;2.80;;;0.70;;
37201;SDS011;37799;52.390;6.136;2023-07-29T12:04:07;1.70;;;0.50;;
37201;SDS011;37799;52.390;6.136;2023-07-29T12:06:32;1.45;;;0.40;;
37201;SDS011;37799;52.390;6.136;2023-07-29T12:08:58;1.45;;;0.40;;
37201;SDS011;37799;52.390;6.136;2023-07-29T12:11:24;1.38;;;0.40;;
37201;SDS011;37799;52.390;6.136;2023-07-29T12:13:49;1.88;;;0.32;;
37201;SDS011;37799;52.390;6.136;2023-07-29T12:16:17;1.02;;;0.35;;
37201;SDS011;37799;52.390;6.136;2023-07-29T12:18:43;2.47;;;0.60;;
37201;SDS011;37799;52.390;6.136;2023-07-29T12:21:09;1.75;;;0.40;;
37201;SDS011;37799;52.390;6.136;2023-07-29T12:23:34;2.53;;;0.70;;
37201;SDS011;37799;52.390;6.136;2023-07-29T12:26:00;1.98;;;0.47;;
37201;SDS011;37799;52.390;6.136;2023-07-29T12:28:26;1.45;;;0.40;;
37201;SDS011;37799;52.390;6.136;2023-07-29T12:30:55;2.10;;;0.47;;
37201;SDS011;37799;52.390;6.136;2023-07-29T12:33:31;1.67;;;0.43;;
37201;SDS011;37799;52.390;6.136;2023-07-29T12:36:00;1.38;;;0.40;;
37201;SDS011;37799;52.390;6.136;2023-07-29T12:38:26;2.78;;;0.75;;
37201;SDS011;37799;52.390;6.136;2023-07-29T12:40:52;4.47;;;1.48;;
37201;SDS011;37799;52.390;6.136;2023-07-29T12:43:17;6.38;;;2.22;;
37201;SDS011;37799;52.390;6.136;2023-07-29T12:45:42;2.70;;;0.68;;
37201;SDS011;37799;52.390;6.136;2023-07-29T12:48:09;2.63;;;0.73;;
37201;SDS011;37799;52.390;6.136;2023-07-29T12:50:35;1.73;;;0.45;;
37201;SDS011;37799;52.390;6.136;2023-07-29T12:53:00;1.95;;;0.50;;
37201;SDS011;37799;52.390;6.136;2023-07-29T12:55:25;0.93;;;0.25;;
37201;SDS011;37799;52.390;6.136;2023-07-29T12:57:51;3.10;;;1.02;;
37201;SDS011;37799;52.390;6.136;2023-07-29T13:00:16;1.75;;;0.40;;
37201;SDS011;37799;52.390;6.136;2023-07-29T13:02:45;0.82;;;0.20;;
37201;SDS011;37799;52.390;6.136;2023-07-29T13:05:10;0.70;;;0.10;;
37201;SDS011;37799;52.390;6.136;2023-07-29T13:07:37;0.73;;;0.10;;
37201;SDS011;37799;52.390;6.136;2023-07-29T13:10:04;1.67;;;0.30;;
37201;SDS011;37799;52.390;6.136;2023-07-29T13:12:30;1.42;;;0.40;;
37201;SDS011;37799;52.390;6.136;2023-07-29T13:14:55;1.30;;;0.30;;
37201;SDS011;37799;52.390;6.136;2023-07-29T13:17:21;0.22;;;0.00;;
37201;SDS011;37799;52.390;6.136;2023-07-29T13:19:47;0.43;;;0.00;;
37201;SDS011;37799;52.390;6.136;2023-07-29T13:22:12;2.92;;;0.30;;
37201;SDS011;37799;52.390;6.136;2023-07-29T13:24:38;0.90;;;0.20;;
37201;SDS011;37799;52.390;6.136;2023-07-29T13:27:03;0.95;;;0.10;;
37201;SDS011;37799;52.390;6.136;2023-07-29T13:29:29;1.02;;;0.20;;
37201;SDS011;37799;52.390;6.136;2023-07-29T13:31:55;2.45;;;0.32;;
37201;SDS011;37799;52.390;6.136;2023-07-29T13:34:20;1.13;;;0.10;;
37201;SDS011;37799;52.390;6.136;2023-07-29T13:36:45;0.37;;;0.07;;
37201;SDS011;37799;52.390;6.136;2023-07-29T13:39:10;0.60;;;0.10;;
37201;SDS011;37799;52.390;6.136;2023-07-29T13:41:36;0.63;;;0.10;;
37201;SDS011;37799;52.390;6.136;2023-07-29T13:44:01;0.10;;;0.00;;
37201;SDS011;37799;52.390;6.136;2023-07-29T13:46:26;1.10;;;0.10;;
37201;SDS011;37799;52.390;6.136;2023-07-29T13:48:52;0.70;;;0.10;;
37201;SDS011;37799;52.390;6.136;2023-07-29T13:51:17;0.25;;;0.00;;
37201;SDS011;37799;52.390;6.136;2023-07-29T13:53:43;0.57;;;0.10;;
37201;SDS011;37799;52.390;6.136;2023-07-29T13:56:08;0.70;;;0.10;;
37201;SDS011;37799;52.390;6.136;2023-07-29T13:58:33;0.28;;;0.10;;
37201;SDS011;37799;52.390;6.136;2023-07-29T14:00:59;0.75;;;0.15;;
37201;SDS011;37799;52.390;6.136;2023-07-29T14:03:24;1.27;;;0.15;;
37201;SDS011;37799;52.390;6.136;2023-07-29T14:05:49;1.50;;;0.30;;
37201;SDS011;37799;52.390;6.136;2023-07-29T14:08:14;0.67;;;0.10;;
37201;SDS011;37799;52.390;6.136;2023-07-29T14:10:40;0.63;;;0.10;;
37201;SDS011;37799;52.390;6.136;2023-07-29T14:13:05;0.30;;;0.10;;
37201;SDS011;37799;52.390;6.136;2023-07-29T14:15:31;1.60;;;0.20;;
37201;SDS011;37799;52.390;6.136;2023-07-29T14:17:57;1.00;;;0.20;;
37201;SDS011;37799;52.390;6.136;2023-07-29T14:20:23;1.23;;;0.30;;
37201;SDS011;37799;52.390;6.136;2023-07-29T14:22:48;0.82;;;0.10;;
37201;SDS011;37799;52.390;6.136;2023-07-29T14:25:14;1.25;;;0.20;;
37201;SDS011;37799;52.390;6.136;2023-07-29T14:27:39;0.47;;;0.10;;
37201;SDS011;37799;52.390;6.136;2023-07-29T14:30:05;0.60;;;0.10;;
37201;SDS011;37799;52.390;6.136;2023-07-29T14:32:31;1.02;;;0.20;;
37201;SDS011;37799;52.390;6.136;2023-07-29T14:34:56;1.33;;;0.20;;
37201;SDS011;37799;52.390;6.136;2023-07-29T14:37:21;1.17;;;0.13;;
37201;SDS011;37799;52.390;6.136;2023-07-29T14:39:47;1.23;;;0.00;;
37201;SDS011;37799;52.390;6.136;2023-07-29T14:42:12;0.93;;;0.20;;
37201;SDS011;37799;52.390;6.136;2023-07-29T14:44:39;0.30;;;0.10;;
37201;SDS011;37799;52.390;6.136;2023-07-29T14:47:05;1.65;;;0.20;;
37201;SDS011;37799;52.390;6.136;2023-07-29T14:49:32;0.88;;;0.20;;
37201;SDS011;37799;52.390;6.136;2023-07-29T14:51:58;2.38;;;0.15;;
37201;SDS011;37799;52.390;6.136;2023-07-29T14:54:23;1.10;;;0.20;;
37201;SDS011;37799;52.390;6.136;2023-07-29T14:56:48;1.33;;;0.20;;
37201;SDS011;37799;52.390;6.136;2023-07-29T14:59:14;1.20;;;0.30;;
37201;SDS011;37799;52.390;6.136;2023-07-29T15:01:39;1.98;;;0.32;;
37201;SDS011;37799;52.390;6.136;2023-07-29T15:04:04;2.42;;;0.30;;
37201;SDS011;37799;52.390;6.136;2023-07-29T15:06:30;0.70;;;0.20;;
37201;SDS011;37799;52.390;6.136;2023-07-29T15:08:55;1.50;;;0.30;;
37201;SDS011;37799;52.390;6.136;2023-07-29T15:11:21;1.33;;;0.40;;
37201;SDS011;37799;52.390;6.136;2023-07-29T15:13:46;1.17;;;0.38;;
37201;SDS011;37799;52.390;6.136;2023-07-29T15:16:11;0.88;;;0.20;;
37201;SDS011;37799;52.390;6.136;2023-07-29T15:18:38;1.17;;;0.35;;
37201;SDS011;37799;52.390;6.136;2023-07-29T15:21:04;2.00;;;0.33;;
37201;SDS011;37799;52.390;6.136;2023-07-29T15:23:32;1.80;;;0.30;;
37201;SDS011;37799;52.390;6.136;2023-07-29T15:25:57;1.20;;;0.35;;
37201;SDS011;37799;52.390;6.136;2023-07-29T15:28:25;1.67;;;0.38;;
37201;SDS011;37799;52.390;6.136;2023-07-29T15:30:52;2.20;;;0.40;;
37201;SDS011;37799;52.390;6.136;2023-07-29T15:33:18;0.68;;;0.20;;
37201;SDS011;37799;52.390;6.136;2023-07-29T15:35:43;1.27;;;0.30;;
37201;SDS011;37799;52.390;6.136;2023-07-29T15:38:09;1.73;;;0.50;;
37201;SDS011;37799;52.390;6.136;2023-07-29T15:40:34;0.68;;;0.13;;
37201;SDS011;37799;52.390;6.136;2023-07-29T15:43:01;1.70;;;0.30;;
37201;SDS011;37799;52.390;6.136;2023-07-29T15:45:27;1.50;;;0.40;;
37201;SDS011;37799;52.390;6.136;2023-07-29T15:47:55;1.02;;;0.20;;
37201;SDS011;37799;52.390;6.136;2023-07-29T15:50:24;3.03;;;0.77;;
37201;SDS011;37799;52.390;6.136;2023-07-29T15:52:51;1.45;;;0.30;;
37201;SDS011;37799;52.390;6.136;2023-07-29T15:55:16;1.02;;;0.28;;
37201;SDS011;37799;52.390;6.136;2023-07-29T15:57:41;1.33;;;0.35;;
37201;SDS011;37799;52.390;6.136;2023-07-29T16:00:09;1.45;;;0.30;;
37201;SDS011;37799;52.390;6.136;2023-07-29T16:02:35;1.35;;;0.30;;
37201;SDS011;37799;52.390;6.136;2023-07-29T16:05:01;0.63;;;0.10;;
37201;SDS011;37799;52.390;6.136;2023-07-29T16:10:05;0.63;;;0.20;;
37201;SDS011;37799;52.390;6.136;2023-07-29T16:12:31;2.47;;;0.40;;
37201;SDS011;37799;52.390;6.136;2023-07-29T16:15:00;1.15;;;0.30;;
37201;SDS011;37799;52.390;6.136;2023-07-29T16:17:26;0.93;;;0.20;;
37201;SDS011;37799;52.390;6.136;2023-07-29T16:19:58;1.07;;;0.20;;
37201;SDS011;37799;52.390;6.136;2023-07-29T16:22:25;1.20;;;0.20;;
37201;SDS011;37799;52.390;6.136;2023-07-29T16:24:51;1.08;;;0.20;;
37201;SDS011;37799;52.390;6.136;2023-07-29T16:27:17;1.23;;;0.22;;
37201;SDS011;37799;52.390;6.136;2023-07-29T16:29:43;1.00;;;0.10;;